sensor_id;sensor_type;location;lat;lon;timestamp;P1;durP1;ratioP1;P2;durP2;ratioP2
69754;SDS011;57023;52.218;5.158;2023-08-12T00:00:06;10.45;;;5.30;;
69754;SDS011;57023;52.218;5.158;2023-08-12T00:02:39;10.02;;;5.40;;
69754;SDS011;57023;52.218;5.158;2023-08-12T00:05:05;10.45;;;5.30;;
69754;SDS011;57023;52.218;5.158;2023-08-12T00:07:30;10.07;;;5.27;;
69754;SDS011;57023;52.218;5.158;2023-08-12T00:09:57;10.25;;;5.05;;
69754;SDS011;57023;52.218;5.158;2023-08-12T00:12:23;10.40;;;5.30;;
69754;SDS011;57023;52.218;5.158;2023-08-12T00:14:48;10.43;;;5.45;;
69754;SDS011;57023;52.218;5.158;2023-08-12T00:17:13;8.32;;;5.15;;
69754;SDS011;57023;52.218;5.158;2023-08-12T00:19:39;11.27;;;4.85;;
69754;SDS011;57023;52.218;5.158;2023-08-12T00:22:04;11.27;;;5.50;;
69754;SDS011;57023;52.218;5.158;2023-08-12T00:24:29;10.48;;;5.30;;
69754;SDS011;57023;52.218;5.158;2023-08-12T00:26:55;11.23;;;5.40;;
69754;SDS011;57023;52.218;5.158;2023-08-12T00:29:20;8.50;;;4.97;;
69754;SDS011;57023;52.218;5.158;2023-08-12T00:31:46;10.40;;;5.47;;
69754;SDS011;57023;52.218;5.158;2023-08-12T00:34:14;10.55;;;5.82;;
69754;SDS011;57023;52.218;5.158;2023-08-12T00:36:39;11.70;;;5.80;;
69754;SDS011;57023;52.218;5.158;2023-08-12T00:39:05;12.57;;;5.53;;
69754;SDS011;57023;52.218;5.158;2023-08-12T00:41:32;11.52;;;5.88;;
69754;SDS011;57023;52.218;5.158;2023-08-12T00:43:58;12.70;;;6.00;;
69754;SDS011;57023;52.218;5.158;2023-08-12T00:46:23;13.32;;;6.07;;
69754;SDS011;57023;52.218;5.158;2023-08-12T00:48:49;11.90;;;6.28;;
69754;SDS011;57023;52.218;5.158;2023-08-12T00:51:15;11.95;;;6.50;;
69754;SDS011;57023;52.218;5.158;2023-08-12T00:53:41;10.40;;;6.30;;
69754;SDS011;57023;52.218;5.158;2023-08-12T00:56:07;12.47;;;6.93;;
69754;SDS011;57023;52.218;5.158;2023-08-12T00:58:32;13.10;;;6.85;;
69754;SDS011;57023;52.218;5.158;2023-08-12T01:00:57;12.77;;;7.03;;
69754;SDS011;57023;52.218;5.158;2023-08-12T01:03:23;13.43;;;7.10;;
69754;SDS011;57023;52.218;5.158;2023-08-12T01:05:48;15.20;;;7.03;;
69754;SDS011;57023;52.218;5.158;2023-08-12T01:08:14;12.57;;;6.72;;
69754;SDS011;57023;52.218;5.158;2023-08-12T01:10:39;17.05;;;7.00;;
69754;SDS011;57023;52.218;5.158;2023-08-12T01:13:19;13.32;;;7.72;;
69754;SDS011;57023;52.218;5.158;2023-08-12T01:15:46;14.70;;;7.85;;
69754;SDS011;57023;52.218;5.158;2023-08-12T01:18:16;14.15;;;7.70;;
69754;SDS011;57023;52.218;5.158;2023-08-12T01:20:42;13.43;;;7.43;;
69754;SDS011;57023;52.218;5.158;2023-08-12T01:25:35;16.50;;;9.18;;
69754;SDS011;57023;52.218;5.158;2023-08-12T01:28:00;17.67;;;8.73;;
69754;SDS011;57023;52.218;5.158;2023-08-12T01:30:25;14.02;;;8.07;;
69754;SDS011;57023;52.218;5.158;2023-08-12T01:33:00;15.10;;;8.48;;
69754;SDS011;57023;52.218;5.158;2023-08-12T01:37:57;16.58;;;8.35;;
69754;SDS011;57023;52.218;5.158;2023-08-12T01:40:24;15.48;;;8.40;;
69754;SDS011;57023;52.218;5.158;2023-08-12T01:42:50;15.20;;;8.32;;
69754;SDS011;57023;52.218;5.158;2023-08-12T01:45:17;15.50;;;8.67;;
69754;SDS011;57023;52.218;5.158;2023-08-12T01:47:43;16.83;;;8.77;;
69754;SDS011;57023;52.218;5.158;2023-08-12T01:50:08;16.95;;;8.85;;
69754;SDS011;57023;52.218;5.158;2023-08-12T01:52:34;17.42;;;8.70;;
69754;SDS011;57023;52.218;5.158;2023-08-12T01:55:00;16.75;;;8.63;;
69754;SDS011;57023;52.218;5.158;2023-08-12T01:57:28;14.55;;;8.63;;
69754;SDS011;57023;52.218;5.158;2023-08-12T01:59:53;22.75;;;8.40;;
69754;SDS011;57023;52.218;5.158;2023-08-12T02:02:19;14.63;;;8.18;;
69754;SDS011;57023;52.218;5.158;2023-08-12T02:04:44;15.63;;;8.18;;
69754;SDS011;57023;52.218;5.158;2023-08-12T02:07:11;17.67;;;8.65;;
69754;SDS011;57023;52.218;5.158;2023-08-12T02:09:36;16.20;;;8.63;;
69754;SDS011;57023;52.218;5.158;2023-08-12T02:12:01;14.00;;;8.10;;
69754;SDS011;57023;52.218;5.158;2023-08-12T02:14:27;19.60;;;8.55;;
69754;SDS011;57023;52.218;5.158;2023-08-12T02:16:52;15.85;;;8.63;;
69754;SDS011;57023;52.218;5.158;2023-08-12T02:19:17;18.80;;;8.88;;
69754;SDS011;57023;52.218;5.158;2023-08-12T02:21:43;19.92;;;9.30;;
69754;SDS011;57023;52.218;5.158;2023-08-12T02:24:08;18.73;;;9.23;;
69754;SDS011;57023;52.218;5.158;2023-08-12T02:26:34;15.02;;;8.50;;
69754;SDS011;57023;52.218;5.158;2023-08-12T02:28:59;19.35;;;9.10;;
69754;SDS011;57023;52.218;5.158;2023-08-12T02:31:27;17.48;;;9.43;;
69754;SDS011;57023;52.218;5.158;2023-08-12T02:33:52;16.77;;;9.07;;
69754;SDS011;57023;52.218;5.158;2023-08-12T02:36:18;18.42;;;9.40;;
69754;SDS011;57023;52.218;5.158;2023-08-12T02:38:44;17.65;;;9.25;;
69754;SDS011;57023;52.218;5.158;2023-08-12T02:41:09;17.77;;;10.05;;
69754;SDS011;57023;52.218;5.158;2023-08-12T02:43:34;18.10;;;9.25;;
69754;SDS011;57023;52.218;5.158;2023-08-12T02:46:02;19.00;;;10.35;;
69754;SDS011;57023;52.218;5.158;2023-08-12T02:48:28;20.75;;;10.52;;
69754;SDS011;57023;52.218;5.158;2023-08-12T02:50:56;19.10;;;10.82;;
69754;SDS011;57023;52.218;5.158;2023-08-12T02:53:21;20.63;;;10.73;;
69754;SDS011;57023;52.218;5.158;2023-08-12T02:55:49;19.15;;;10.75;;
69754;SDS011;57023;52.218;5.158;2023-08-12T02:58:14;21.38;;;11.32;;
69754;SDS011;57023;52.218;5.158;2023-08-12T03:00:42;18.52;;;11.00;;
69754;SDS011;57023;52.218;5.158;2023-08-12T03:03:10;19.20;;;11.43;;
69754;SDS011;57023;52.218;5.158;2023-08-12T03:05:36;19.98;;;11.70;;
69754;SDS011;57023;52.218;5.158;2023-08-12T03:08:02;21.13;;;11.43;;
69754;SDS011;57023;52.218;5.158;2023-08-12T03:10:28;22.48;;;11.95;;
69754;SDS011;57023;52.218;5.158;2023-08-12T03:12:54;19.77;;;11.73;;
69754;SDS011;57023;52.218;5.158;2023-08-12T03:15:19;21.67;;;11.40;;
69754;SDS011;57023;52.218;5.158;2023-08-12T03:17:45;17.85;;;11.07;;
69754;SDS011;57023;52.218;5.158;2023-08-12T03:20:16;20.20;;;12.18;;
69754;SDS011;57023;52.218;5.158;2023-08-12T03:22:41;20.35;;;11.38;;
69754;SDS011;57023;52.218;5.158;2023-08-12T03:25:07;21.60;;;12.15;;
69754;SDS011;57023;52.218;5.158;2023-08-12T03:27:32;19.70;;;12.38;;
69754;SDS011;57023;52.218;5.158;2023-08-12T03:29:58;20.23;;;11.13;;
69754;SDS011;57023;52.218;5.158;2023-08-12T03:32:24;20.77;;;12.25;;
69754;SDS011;57023;52.218;5.158;2023-08-12T03:34:50;20.40;;;12.73;;
69754;SDS011;57023;52.218;5.158;2023-08-12T03:37:15;20.80;;;12.10;;
69754;SDS011;57023;52.218;5.158;2023-08-12T03:39:40;24.17;;;12.15;;
69754;SDS011;57023;52.218;5.158;2023-08-12T03:42:06;22.50;;;13.35;;
69754;SDS011;57023;52.218;5.158;2023-08-12T03:44:31;20.42;;;12.35;;
69754;SDS011;57023;52.218;5.158;2023-08-12T03:46:56;21.65;;;12.70;;
69754;SDS011;57023;52.218;5.158;2023-08-12T03:49:22;23.05;;;13.10;;
69754;SDS011;57023;52.218;5.158;2023-08-12T03:51:47;19.25;;;11.85;;
69754;SDS011;57023;52.218;5.158;2023-08-12T03:54:12;20.92;;;12.95;;
69754;SDS011;57023;52.218;5.158;2023-08-12T03:56:38;21.88;;;13.48;;
69754;SDS011;57023;52.218;5.158;2023-08-12T03:59:03;24.45;;;13.75;;
69754;SDS011;57023;52.218;5.158;2023-08-12T04:01:28;25.10;;;14.00;;
69754;SDS011;57023;52.218;5.158;2023-08-12T04:03:54;22.90;;;13.38;;
69754;SDS011;57023;52.218;5.158;2023-08-12T04:06:19;21.10;;;14.00;;
69754;SDS011;57023;52.218;5.158;2023-08-12T04:08:44;22.65;;;14.02;;
69754;SDS011;57023;52.218;5.158;2023-08-12T04:11:10;23.30;;;13.95;;
69754;SDS011;57023;52.218;5.158;2023-08-12T04:13:35;27.10;;;14.13;;
69754;SDS011;57023;52.218;5.158;2023-08-12T04:16:00;24.77;;;13.98;;
69754;SDS011;57023;52.218;5.158;2023-08-12T04:18:26;24.42;;;13.52;;
69754;SDS011;57023;52.218;5.158;2023-08-12T04:20:52;23.70;;;13.32;;
69754;SDS011;57023;52.218;5.158;2023-08-12T04:23:18;26.23;;;14.77;;
69754;SDS011;57023;52.218;5.158;2023-08-12T04:25:44;26.23;;;14.60;;
69754;SDS011;57023;52.218;5.158;2023-08-12T04:30:39;26.07;;;14.37;;
69754;SDS011;57023;52.218;5.158;2023-08-12T04:33:06;25.55;;;13.85;;
69754;SDS011;57023;52.218;5.158;2023-08-12T04:35:31;25.05;;;14.60;;
69754;SDS011;57023;52.218;5.158;2023-08-12T04:37:57;23.52;;;14.68;;
69754;SDS011;57023;52.218;5.158;2023-08-12T04:40:28;24.95;;;14.40;;
69754;SDS011;57023;52.218;5.158;2023-08-12T04:42:54;20.85;;;14.38;;
69754;SDS011;57023;52.218;5.158;2023-08-12T04:45:19;27.27;;;15.57;;
69754;SDS011;57023;52.218;5.158;2023-08-12T04:47:45;26.95;;;15.18;;
69754;SDS011;57023;52.218;5.158;2023-08-12T04:50:10;27.83;;;15.63;;
69754;SDS011;57023;52.218;5.158;2023-08-12T04:52:38;25.00;;;14.93;;
69754;SDS011;57023;52.218;5.158;2023-08-12T04:55:04;27.50;;;14.88;;
69754;SDS011;57023;52.218;5.158;2023-08-12T04:57:29;22.48;;;15.00;;
69754;SDS011;57023;52.218;5.158;2023-08-12T04:59:55;26.40;;;14.93;;
69754;SDS011;57023;52.218;5.158;2023-08-12T05:02:20;28.17;;;15.00;;
69754;SDS011;57023;52.218;5.158;2023-08-12T05:04:48;22.33;;;15.13;;
69754;SDS011;57023;52.218;5.158;2023-08-12T05:07:14;24.40;;;14.68;;
69754;SDS011;57023;52.218;5.158;2023-08-12T05:09:39;23.38;;;14.23;;
69754;SDS011;57023;52.218;5.158;2023-08-12T05:12:04;26.27;;;14.38;;
69754;SDS011;57023;52.218;5.158;2023-08-12T05:14:30;24.92;;;15.43;;
69754;SDS011;57023;52.218;5.158;2023-08-12T05:16:55;24.85;;;15.20;;
69754;SDS011;57023;52.218;5.158;2023-08-12T05:19:21;23.58;;;14.60;;
69754;SDS011;57023;52.218;5.158;2023-08-12T05:21:46;23.15;;;14.27;;
69754;SDS011;57023;52.218;5.158;2023-08-12T05:24:14;24.20;;;14.32;;
69754;SDS011;57023;52.218;5.158;2023-08-12T05:26:40;24.42;;;14.38;;
69754;SDS011;57023;52.218;5.158;2023-08-12T05:29:05;20.02;;;13.93;;
69754;SDS011;57023;52.218;5.158;2023-08-12T05:31:34;27.35;;;15.88;;
69754;SDS011;57023;52.218;5.158;2023-08-12T05:33:59;20.67;;;14.27;;
69754;SDS011;57023;52.218;5.158;2023-08-12T05:36:24;24.92;;;14.52;;
69754;SDS011;57023;52.218;5.158;2023-08-12T05:38:50;26.50;;;14.45;;
69754;SDS011;57023;52.218;5.158;2023-08-12T05:41:16;24.58;;;14.60;;
69754;SDS011;57023;52.218;5.158;2023-08-12T05:43:44;21.90;;;14.05;;
69754;SDS011;57023;52.218;5.158;2023-08-12T05:46:12;23.27;;;14.45;;
69754;SDS011;57023;52.218;5.158;2023-08-12T05:48:37;22.98;;;15.20;;
69754;SDS011;57023;52.218;5.158;2023-08-12T05:51:03;24.17;;;15.50;;
69754;SDS011;57023;52.218;5.158;2023-08-12T05:53:31;21.42;;;14.57;;
69754;SDS011;57023;52.218;5.158;2023-08-12T05:55:57;22.77;;;15.32;;
69754;SDS011;57023;52.218;5.158;2023-08-12T05:58:23;23.35;;;14.85;;
69754;SDS011;57023;52.218;5.158;2023-08-12T06:00:48;23.50;;;15.43;;
69754;SDS011;57023;52.218;5.158;2023-08-12T06:03:13;26.83;;;15.50;;
69754;SDS011;57023;52.218;5.158;2023-08-12T06:05:40;23.75;;;15.50;;
69754;SDS011;57023;52.218;5.158;2023-08-12T06:08:06;28.50;;;15.05;;
69754;SDS011;57023;52.218;5.158;2023-08-12T06:10:31;28.10;;;16.45;;
69754;SDS011;57023;52.218;5.158;2023-08-12T06:12:58;26.60;;;14.73;;
69754;SDS011;57023;52.218;5.158;2023-08-12T06:15:23;25.10;;;16.02;;
69754;SDS011;57023;52.218;5.158;2023-08-12T06:17:48;23.60;;;12.75;;
69754;SDS011;57023;52.218;5.158;2023-08-12T06:20:14;32.45;;;17.70;;
69754;SDS011;57023;52.218;5.158;2023-08-12T06:22:39;37.38;;;18.52;;
69754;SDS011;57023;52.218;5.158;2023-08-12T06:25:04;29.25;;;17.33;;
69754;SDS011;57023;52.218;5.158;2023-08-12T06:27:30;24.27;;;14.02;;
69754;SDS011;57023;52.218;5.158;2023-08-12T06:29:55;14.77;;;8.80;;
69754;SDS011;57023;52.218;5.158;2023-08-12T06:32:20;19.65;;;10.77;;
69754;SDS011;57023;52.218;5.158;2023-08-12T06:34:46;20.92;;;11.82;;
69754;SDS011;57023;52.218;5.158;2023-08-12T06:37:11;20.45;;;11.90;;
69754;SDS011;57023;52.218;5.158;2023-08-12T06:39:36;20.75;;;12.10;;
69754;SDS011;57023;52.218;5.158;2023-08-12T06:42:02;21.98;;;12.77;;
69754;SDS011;57023;52.218;5.158;2023-08-12T06:44:28;22.67;;;12.60;;
69754;SDS011;57023;52.218;5.158;2023-08-12T06:46:53;16.02;;;9.85;;
69754;SDS011;57023;52.218;5.158;2023-08-12T06:49:19;18.33;;;10.48;;
69754;SDS011;57023;52.218;5.158;2023-08-12T06:51:44;15.73;;;9.98;;
69754;SDS011;57023;52.218;5.158;2023-08-12T06:54:09;17.92;;;9.82;;
69754;SDS011;57023;52.218;5.158;2023-08-12T06:56:35;15.88;;;9.32;;
69754;SDS011;57023;52.218;5.158;2023-08-12T06:59:00;15.57;;;8.55;;
69754;SDS011;57023;52.218;5.158;2023-08-12T07:01:28;13.25;;;7.50;;
69754;SDS011;57023;52.218;5.158;2023-08-12T07:03:54;10.10;;;6.00;;
69754;SDS011;57023;52.218;5.158;2023-08-12T07:06:19;11.82;;;6.45;;
69754;SDS011;57023;52.218;5.158;2023-08-12T07:08:44;9.13;;;5.25;;
69754;SDS011;57023;52.218;5.158;2023-08-12T07:11:10;7.75;;;5.65;;
69754;SDS011;57023;52.218;5.158;2023-08-12T07:13:35;10.45;;;5.43;;
69754;SDS011;57023;52.218;5.158;2023-08-12T07:16:00;9.20;;;5.10;;
69754;SDS011;57023;52.218;5.158;2023-08-12T07:18:26;9.27;;;5.05;;
69754;SDS011;57023;52.218;5.158;2023-08-12T07:20:51;7.68;;;5.07;;
69754;SDS011;57023;52.218;5.158;2023-08-12T07:23:16;9.75;;;5.40;;
69754;SDS011;57023;52.218;5.158;2023-08-12T07:25:42;8.13;;;4.75;;
69754;SDS011;57023;52.218;5.158;2023-08-12T07:28:07;8.13;;;5.20;;
69754;SDS011;57023;52.218;5.158;2023-08-12T07:30:35;8.85;;;5.30;;
69754;SDS011;57023;52.218;5.158;2023-08-12T07:33:01;8.85;;;4.90;;
69754;SDS011;57023;52.218;5.158;2023-08-12T07:35:26;7.28;;;5.00;;
69754;SDS011;57023;52.218;5.158;2023-08-12T07:37:51;8.85;;;4.75;;
69754;SDS011;57023;52.218;5.158;2023-08-12T07:40:17;8.98;;;5.22;;
69754;SDS011;57023;52.218;5.158;2023-08-12T07:42:42;9.20;;;5.20;;
69754;SDS011;57023;52.218;5.158;2023-08-12T07:45:08;10.77;;;5.35;;
69754;SDS011;57023;52.218;5.158;2023-08-12T07:47:34;10.35;;;5.40;;
69754;SDS011;57023;52.218;5.158;2023-08-12T07:49:59;9.90;;;5.45;;
69754;SDS011;57023;52.218;5.158;2023-08-12T07:52:27;8.32;;;5.43;;
69754;SDS011;57023;52.218;5.158;2023-08-12T07:54:52;10.98;;;5.25;;
69754;SDS011;57023;52.218;5.158;2023-08-12T07:57:18;8.32;;;5.18;;
69754;SDS011;57023;52.218;5.158;2023-08-12T07:59:45;6.32;;;4.03;;
69754;SDS011;57023;52.218;5.158;2023-08-12T08:02:10;5.90;;;3.65;;
69754;SDS011;57023;52.218;5.158;2023-08-12T08:04:36;5.40;;;3.50;;
69754;SDS011;57023;52.218;5.158;2023-08-12T08:07:02;7.03;;;3.88;;
69754;SDS011;57023;52.218;5.158;2023-08-12T08:09:28;4.60;;;2.97;;
69754;SDS011;57023;52.218;5.158;2023-08-12T08:11:56;5.07;;;3.13;;
69754;SDS011;57023;52.218;5.158;2023-08-12T08:14:21;4.88;;;3.22;;
69754;SDS011;57023;52.218;5.158;2023-08-12T08:16:47;4.97;;;3.47;;
69754;SDS011;57023;52.218;5.158;2023-08-12T08:19:12;5.32;;;3.10;;
69754;SDS011;57023;52.218;5.158;2023-08-12T08:21:38;4.57;;;3.10;;
69754;SDS011;57023;52.218;5.158;2023-08-12T08:24:03;4.60;;;3.30;;
69754;SDS011;57023;52.218;5.158;2023-08-12T08:26:28;4.95;;;3.00;;
69754;SDS011;57023;52.218;5.158;2023-08-12T08:28:54;5.53;;;3.15;;
69754;SDS011;57023;52.218;5.158;2023-08-12T08:31:19;5.78;;;2.78;;
69754;SDS011;57023;52.218;5.158;2023-08-12T08:33:47;5.35;;;2.88;;
69754;SDS011;57023;52.218;5.158;2023-08-12T08:36:12;7.00;;;3.17;;
69754;SDS011;57023;52.218;5.158;2023-08-12T08:38:38;6.60;;;2.55;;
69754;SDS011;57023;52.218;5.158;2023-08-12T08:41:03;6.93;;;2.75;;
69754;SDS011;57023;52.218;5.158;2023-08-12T08:43:31;6.90;;;2.65;;
69754;SDS011;57023;52.218;5.158;2023-08-12T08:45:57;8.45;;;2.60;;
69754;SDS011;57023;52.218;5.158;2023-08-12T08:48:23;9.48;;;2.78;;
69754;SDS011;57023;52.218;5.158;2023-08-12T08:50:49;8.18;;;2.83;;
69754;SDS011;57023;52.218;5.158;2023-08-12T08:53:16;7.80;;;2.63;;
69754;SDS011;57023;52.218;5.158;2023-08-12T08:55:45;8.65;;;2.80;;
69754;SDS011;57023;52.218;5.158;2023-08-12T08:58:11;8.55;;;2.75;;
69754;SDS011;57023;52.218;5.158;2023-08-12T09:00:37;6.75;;;2.92;;
69754;SDS011;57023;52.218;5.158;2023-08-12T09:03:03;11.55;;;2.70;;
69754;SDS011;57023;52.218;5.158;2023-08-12T09:05:30;8.52;;;2.90;;
69754;SDS011;57023;52.218;5.158;2023-08-12T09:07:56;9.90;;;2.95;;
69754;SDS011;57023;52.218;5.158;2023-08-12T09:10:21;9.55;;;2.90;;
69754;SDS011;57023;52.218;5.158;2023-08-12T09:12:49;10.63;;;3.22;;
69754;SDS011;57023;52.218;5.158;2023-08-12T09:15:15;7.63;;;2.78;;
69754;SDS011;57023;52.218;5.158;2023-08-12T09:17:42;8.23;;;2.90;;
69754;SDS011;57023;52.218;5.158;2023-08-12T09:20:07;9.52;;;3.00;;
69754;SDS011;57023;52.218;5.158;2023-08-12T09:22:36;11.02;;;3.20;;
69754;SDS011;57023;52.218;5.158;2023-08-12T09:25:02;12.82;;;3.50;;
69754;SDS011;57023;52.218;5.158;2023-08-12T09:27:30;7.05;;;2.80;;
69754;SDS011;57023;52.218;5.158;2023-08-12T09:29:56;8.50;;;3.30;;
69754;SDS011;57023;52.218;5.158;2023-08-12T09:32:22;8.70;;;3.03;;
69754;SDS011;57023;52.218;5.158;2023-08-12T09:37:17;9.15;;;3.15;;
69754;SDS011;57023;52.218;5.158;2023-08-12T09:39:43;9.75;;;3.35;;
69754;SDS011;57023;52.218;5.158;2023-08-12T09:42:09;9.10;;;3.20;;
69754;SDS011;57023;52.218;5.158;2023-08-12T09:44:36;7.90;;;2.80;;
69754;SDS011;57023;52.218;5.158;2023-08-12T09:47:02;7.93;;;2.90;;
69754;SDS011;57023;52.218;5.158;2023-08-12T09:49:28;7.50;;;3.00;;
69754;SDS011;57023;52.218;5.158;2023-08-12T09:51:53;9.60;;;2.83;;
69754;SDS011;57023;52.218;5.158;2023-08-12T09:54:19;7.90;;;2.97;;
69754;SDS011;57023;52.218;5.158;2023-08-12T09:56:46;8.93;;;2.95;;
69754;SDS011;57023;52.218;5.158;2023-08-12T09:59:12;9.82;;;3.28;;
69754;SDS011;57023;52.218;5.158;2023-08-12T10:01:44;6.78;;;2.60;;
69754;SDS011;57023;52.218;5.158;2023-08-12T10:04:11;7.97;;;3.03;;
69754;SDS011;57023;52.218;5.158;2023-08-12T10:06:40;5.97;;;2.80;;
69754;SDS011;57023;52.218;5.158;2023-08-12T10:09:05;9.07;;;3.00;;
69754;SDS011;57023;52.218;5.158;2023-08-12T10:11:33;8.88;;;2.97;;
69754;SDS011;57023;52.218;5.158;2023-08-12T10:13:59;8.57;;;2.88;;
69754;SDS011;57023;52.218;5.158;2023-08-12T10:16:25;9.90;;;3.10;;
69754;SDS011;57023;52.218;5.158;2023-08-12T10:18:51;8.40;;;3.30;;
69754;SDS011;57023;52.218;5.158;2023-08-12T10:21:16;8.77;;;3.50;;
69754;SDS011;57023;52.218;5.158;2023-08-12T10:23:42;11.13;;;3.70;;
69754;SDS011;57023;52.218;5.158;2023-08-12T10:28:34;8.50;;;3.60;;
69754;SDS011;57023;52.218;5.158;2023-08-12T10:31:03;13.88;;;3.70;;
69754;SDS011;57023;52.218;5.158;2023-08-12T10:33:29;14.50;;;3.78;;
69754;SDS011;57023;52.218;5.158;2023-08-12T10:35:55;7.77;;;3.37;;
69754;SDS011;57023;52.218;5.158;2023-08-12T10:38:21;7.90;;;3.37;;
69754;SDS011;57023;52.218;5.158;2023-08-12T10:40:49;7.70;;;3.57;;
69754;SDS011;57023;52.218;5.158;2023-08-12T10:43:15;6.47;;;3.00;;
69754;SDS011;57023;52.218;5.158;2023-08-12T10:45:41;7.87;;;3.40;;
69754;SDS011;57023;52.218;5.158;2023-08-12T10:48:27;9.07;;;2.97;;
69754;SDS011;57023;52.218;5.158;2023-08-12T10:50:54;8.45;;;2.80;;
69754;SDS011;57023;52.218;5.158;2023-08-12T10:53:24;8.13;;;2.40;;
69754;SDS011;57023;52.218;5.158;2023-08-12T10:55:58;5.40;;;2.70;;
69754;SDS011;57023;52.218;5.158;2023-08-12T10:58:36;7.28;;;3.30;;
69754;SDS011;57023;52.218;5.158;2023-08-12T11:01:11;9.48;;;3.22;;
69754;SDS011;57023;52.218;5.158;2023-08-12T11:03:41;12.32;;;2.95;;
69754;SDS011;57023;52.218;5.158;2023-08-12T11:06:07;9.43;;;3.10;;
69754;SDS011;57023;52.218;5.158;2023-08-12T11:08:35;7.30;;;2.67;;
69754;SDS011;57023;52.218;5.158;2023-08-12T11:11:00;7.07;;;2.63;;
69754;SDS011;57023;52.218;5.158;2023-08-12T11:13:27;6.63;;;2.50;;
69754;SDS011;57023;52.218;5.158;2023-08-12T11:15:52;8.73;;;3.00;;
69754;SDS011;57023;52.218;5.158;2023-08-12T11:18:31;8.40;;;2.97;;
69754;SDS011;57023;52.218;5.158;2023-08-12T11:20:56;10.77;;;3.07;;
69754;SDS011;57023;52.218;5.158;2023-08-12T11:23:22;9.25;;;2.80;;
69754;SDS011;57023;52.218;5.158;2023-08-12T11:25:50;8.50;;;2.55;;
69754;SDS011;57023;52.218;5.158;2023-08-12T11:28:17;9.05;;;2.92;;
69754;SDS011;57023;52.218;5.158;2023-08-12T11:30:45;7.57;;;2.90;;
69754;SDS011;57023;52.218;5.158;2023-08-12T11:33:11;8.00;;;3.10;;
69754;SDS011;57023;52.218;5.158;2023-08-12T11:35:36;8.87;;;3.03;;
69754;SDS011;57023;52.218;5.158;2023-08-12T11:38:02;7.68;;;2.50;;
69754;SDS011;57023;52.218;5.158;2023-08-12T11:40:30;7.60;;;2.50;;
69754;SDS011;57023;52.218;5.158;2023-08-12T11:42:55;7.10;;;2.60;;
69754;SDS011;57023;52.218;5.158;2023-08-12T11:45:21;6.70;;;2.60;;
69754;SDS011;57023;52.218;5.158;2023-08-12T11:47:48;11.52;;;3.03;;
69754;SDS011;57023;52.218;5.158;2023-08-12T11:50:17;9.85;;;2.65;;
69754;SDS011;57023;52.218;5.158;2023-08-12T11:55:09;8.20;;;3.20;;
69754;SDS011;57023;52.218;5.158;2023-08-12T11:57:34;9.03;;;3.10;;
69754;SDS011;57023;52.218;5.158;2023-08-12T12:00:04;6.77;;;3.10;;
69754;SDS011;57023;52.218;5.158;2023-08-12T12:02:36;8.00;;;2.85;;
69754;SDS011;57023;52.218;5.158;2023-08-12T12:05:10;7.85;;;2.80;;
69754;SDS011;57023;52.218;5.158;2023-08-12T12:07:36;8.75;;;2.75;;
69754;SDS011;57023;52.218;5.158;2023-08-12T12:10:01;6.65;;;2.90;;
69754;SDS011;57023;52.218;5.158;2023-08-12T12:12:27;7.10;;;2.70;;
69754;SDS011;57023;52.218;5.158;2023-08-12T12:14:52;8.90;;;2.70;;
69754;SDS011;57023;52.218;5.158;2023-08-12T12:17:20;9.57;;;2.85;;
69754;SDS011;57023;52.218;5.158;2023-08-12T12:19:46;9.02;;;3.00;;
69754;SDS011;57023;52.218;5.158;2023-08-12T12:22:11;10.13;;;2.83;;
69754;SDS011;57023;52.218;5.158;2023-08-12T12:24:45;8.20;;;2.80;;
69754;SDS011;57023;52.218;5.158;2023-08-12T12:27:11;7.97;;;2.75;;
69754;SDS011;57023;52.218;5.158;2023-08-12T12:29:37;7.97;;;2.92;;
69754;SDS011;57023;52.218;5.158;2023-08-12T12:32:02;7.67;;;3.30;;
69754;SDS011;57023;52.218;5.158;2023-08-12T12:34:28;8.30;;;3.03;;
69754;SDS011;57023;52.218;5.158;2023-08-12T12:36:53;10.23;;;2.90;;
69754;SDS011;57023;52.218;5.158;2023-08-12T12:39:18;7.93;;;3.03;;
69754;SDS011;57023;52.218;5.158;2023-08-12T12:41:44;8.63;;;2.67;;
69754;SDS011;57023;52.218;5.158;2023-08-12T12:44:09;8.30;;;2.83;;
69754;SDS011;57023;52.218;5.158;2023-08-12T12:46:35;6.50;;;2.73;;
69754;SDS011;57023;52.218;5.158;2023-08-12T12:49:00;7.85;;;3.03;;
69754;SDS011;57023;52.218;5.158;2023-08-12T12:51:26;7.90;;;3.23;;
69754;SDS011;57023;52.218;5.158;2023-08-12T12:53:51;8.65;;;3.00;;
69754;SDS011;57023;52.218;5.158;2023-08-12T12:58:42;7.30;;;3.00;;
69754;SDS011;57023;52.218;5.158;2023-08-12T13:03:33;8.30;;;2.90;;
69754;SDS011;57023;52.218;5.158;2023-08-12T13:08:24;10.03;;;3.10;;
69754;SDS011;57023;52.218;5.158;2023-08-12T13:13:15;8.43;;;2.90;;
69754;SDS011;57023;52.218;5.158;2023-08-12T13:15:41;7.65;;;2.78;;
69754;SDS011;57023;52.218;5.158;2023-08-12T13:18:06;9.05;;;2.90;;
69754;SDS011;57023;52.218;5.158;2023-08-12T13:20:32;7.87;;;3.10;;
69754;SDS011;57023;52.218;5.158;2023-08-12T13:22:57;10.77;;;3.73;;
69754;SDS011;57023;52.218;5.158;2023-08-12T13:25:22;8.37;;;2.77;;
69754;SDS011;57023;52.218;5.158;2023-08-12T13:27:51;8.75;;;3.13;;
69754;SDS011;57023;52.218;5.158;2023-08-12T13:30:16;7.53;;;2.73;;
69754;SDS011;57023;52.218;5.158;2023-08-12T13:32:41;10.80;;;3.30;;
69754;SDS011;57023;52.218;5.158;2023-08-12T13:35:07;11.03;;;3.17;;
69754;SDS011;57023;52.218;5.158;2023-08-12T13:37:32;8.07;;;3.17;;
69754;SDS011;57023;52.218;5.158;2023-08-12T13:39:58;11.87;;;3.60;;
69754;SDS011;57023;52.218;5.158;2023-08-12T13:42:23;8.03;;;3.20;;
69754;SDS011;57023;52.218;5.158;2023-08-12T13:44:48;11.23;;;3.00;;
69754;SDS011;57023;52.218;5.158;2023-08-12T13:47:14;7.37;;;2.63;;
69754;SDS011;57023;52.218;5.158;2023-08-12T13:49:42;8.98;;;2.58;;
69754;SDS011;57023;52.218;5.158;2023-08-12T13:52:07;7.40;;;2.90;;
69754;SDS011;57023;52.218;5.158;2023-08-12T13:54:33;8.23;;;2.80;;
69754;SDS011;57023;52.218;5.158;2023-08-12T13:56:59;8.80;;;3.15;;
69754;SDS011;57023;52.218;5.158;2023-08-12T13:59:24;9.10;;;2.90;;
69754;SDS011;57023;52.218;5.158;2023-08-12T14:01:49;8.40;;;2.60;;
69754;SDS011;57023;52.218;5.158;2023-08-12T14:04:15;6.87;;;2.87;;
69754;SDS011;57023;52.218;5.158;2023-08-12T14:06:40;8.83;;;3.03;;
69754;SDS011;57023;52.218;5.158;2023-08-12T14:09:05;8.53;;;3.37;;
69754;SDS011;57023;52.218;5.158;2023-08-12T14:11:33;10.93;;;6.28;;
69754;SDS011;57023;52.218;5.158;2023-08-12T14:13:58;10.20;;;3.40;;
69754;SDS011;57023;52.218;5.158;2023-08-12T14:16:23;9.63;;;2.87;;
69754;SDS011;57023;52.218;5.158;2023-08-12T14:18:49;10.33;;;3.20;;
69754;SDS011;57023;52.218;5.158;2023-08-12T14:21:14;8.67;;;3.33;;
69754;SDS011;57023;52.218;5.158;2023-08-12T14:23:39;9.80;;;3.07;;
69754;SDS011;57023;52.218;5.158;2023-08-12T14:26:04;10.33;;;3.23;;
69754;SDS011;57023;52.218;5.158;2023-08-12T14:28:30;9.37;;;3.33;;
69754;SDS011;57023;52.218;5.158;2023-08-12T14:30:55;9.13;;;3.20;;
69754;SDS011;57023;52.218;5.158;2023-08-12T14:33:21;8.43;;;3.33;;
69754;SDS011;57023;52.218;5.158;2023-08-12T14:35:49;10.80;;;3.50;;
69754;SDS011;57023;52.218;5.158;2023-08-12T14:38:16;9.23;;;2.90;;
69754;SDS011;57023;52.218;5.158;2023-08-12T14:40:41;7.88;;;3.00;;
69754;SDS011;57023;52.218;5.158;2023-08-12T14:43:07;7.13;;;3.20;;
69754;SDS011;57023;52.218;5.158;2023-08-12T14:45:35;10.67;;;2.90;;
69754;SDS011;57023;52.218;5.158;2023-08-12T14:48:00;7.55;;;3.08;;
69754;SDS011;57023;52.218;5.158;2023-08-12T14:50:28;11.02;;;3.28;;
69754;SDS011;57023;52.218;5.158;2023-08-12T14:52:54;9.77;;;3.40;;